Time;durP1;ratioP1;P1;durP2;ratioP2;P2;SDS_P1;SDS_P2;PMS_P1;PMS_P2;Temp;Humidity;BMP_temperature;BMP_pressure;BME280_temperature;BME280_humidity;BME280_pressure;Samples;Min_cycle;Max_cycle;Signal;HPM_P1;HPM_P2
2024/01/13 00:00:16;;;;;;;116.82;29.90;;;1.20;99.90;;;;;;5082147;28;20052;-67
2024/01/13 00:02:41;;;;;;;124.72;31.08;;;1.20;99.90;;;;;;5078920;28;20101;-67
2024/01/13 00:05:07;;;;;;;119.95;32.35;;;1.20;99.90;;;;;;5073728;28;20471;-67
2024/01/13 00:07:33;;;;;;;118.38;33.60;;;1.20;99.90;;;;;;5069299;28;20078;-67
2024/01/13 00:09:58;;;;;;;115.63;32.55;;;1.20;99.90;;;;;;5077230;28;20119;-68
2024/01/13 00:12:24;;;;;;;81.05;23.55;;;1.10;99.90;;;;;;5076486;28;20028;-67
2024/01/13 00:14:51;;;;;;;116.03;32.38;;;1.20;99.90;;;;;;5073430;28;20387;-67
2024/01/13 00:17:17;;;;;;;73.05;22.17;;;1.20;99.90;;;;;;5077050;28;21147;-67
2024/01/13 00:19:42;;;;;;;110.65;30.13;;;1.20;99.90;;;;;;5080481;28;20020;-67
2024/01/13 00:22:08;;;;;;;116.93;29.10;;;1.20;99.90;;;;;;5074410;28;20029;-67
2024/01/13 00:24:34;;;;;;;112.03;29.48;;;1.20;99.90;;;;;;5076544;28;20028;-67
2024/01/13 00:26:59;;;;;;;93.97;27.50;;;1.20;99.90;;;;;;5075385;28;20436;-67
2024/01/13 00:29:25;;;;;;;117.22;30.95;;;1.20;99.90;;;;;;5076114;28;20024;-67
2024/01/13 00:31:50;;;;;;;109.78;30.70;;;1.20;99.90;;;;;;5077868;28;20016;-67
2024/01/13 00:34:16;;;;;;;112.78;28.80;;;1.20;99.90;;;;;;5074577;28;20028;-67
2024/01/13 00:36:42;;;;;;;104.13;30.35;;;1.20;99.90;;;;;;5076857;28;20054;-68
2024/01/13 00:39:08;;;;;;;92.18;26.35;;;1.20;99.90;;;;;;5076240;28;20035;-67
2024/01/13 00:41:34;;;;;;;100.55;28.83;;;1.20;99.90;;;;;;5072619;28;20490;-67
2024/01/13 00:44:00;;;;;;;93.65;25.50;;;1.20;99.90;;;;;;5070161;28;20017;-68
2024/01/13 00:46:26;;;;;;;99.28;28.33;;;1.20;99.90;;;;;;5076542;28;20028;-67
2024/01/13 00:48:52;;;;;;;88.45;24.35;;;1.10;99.90;;;;;;5078961;28;20028;-68
2024/01/13 00:51:17;;;;;;;94.88;28.73;;;1.10;99.90;;;;;;5078793;28;20070;-67
2024/01/13 00:53:43;;;;;;;87.95;25.85;;;1.20;99.90;;;;;;5074148;28;20147;-67
2024/01/13 00:56:09;;;;;;;78.80;21.30;;;1.10;99.90;;;;;;5077026;28;20379;-67
2024/01/13 00:58:34;;;;;;;98.72;26.77;;;1.10;99.90;;;;;;5061696;28;20032;-67
2024/01/13 01:01:02;;;;;;;98.93;26.40;;;1.10;99.90;;;;;;5079331;28;20481;-67
2024/01/13 01:03:28;;;;;;;67.88;18.60;;;1.20;99.90;;;;;;5069372;28;20055;-68
2024/01/13 01:05:54;;;;;;;101.70;29.48;;;1.20;99.90;;;;;;5079826;28;20044;-67
2024/01/13 01:08:20;;;;;;;100.88;28.38;;;1.20;99.90;;;;;;5078073;28;20036;-67
2024/01/13 01:10:46;;;;;;;90.68;27.98;;;1.20;99.90;;;;;;5079012;28;20031;-67
2024/01/13 01:13:12;;;;;;;86.00;24.95;;;1.20;99.90;;;;;;5078248;28;20037;-68
2024/01/13 01:15:38;;;;;;;77.70;22.88;;;1.20;99.90;;;;;;5075076;28;20017;-67
2024/01/13 01:18:04;;;;;;;75.47;21.85;;;1.30;99.90;;;;;;5078774;28;20024;-66
2024/01/13 01:20:29;;;;;;;77.28;23.65;;;1.20;99.90;;;;;;5077705;28;20024;-66
2024/01/13 01:22:55;;;;;;;81.00;27.08;;;1.20;99.90;;;;;;5081007;28;20523;-66
2024/01/13 01:25:21;;;;;;;90.00;28.67;;;1.20;99.90;;;;;;5078097;28;20029;-68
2024/01/13 01:27:46;;;;;;;86.30;25.85;;;1.20;99.90;;;;;;5079823;28;20457;-67
2024/01/13 01:30:12;;;;;;;85.00;27.15;;;1.20;99.90;;;;;;5074951;28;20036;-67
2024/01/13 01:32:38;;;;;;;85.65;27.15;;;1.20;99.90;;;;;;5075417;28;20028;-67
2024/01/13 01:35:06;;;;;;;87.20;25.92;;;1.10;99.90;;;;;;5078750;28;20391;-66
2024/01/13 01:37:32;;;;;;;79.90;25.60;;;1.10;99.90;;;;;;5081086;28;20028;-67
2024/01/13 01:39:58;;;;;;;80.90;26.50;;;1.10;99.90;;;;;;5077210;28;20055;-67
2024/01/13 01:42:23;;;;;;;73.60;23.75;;;1.10;99.90;;;;;;5076870;28;20471;-66
2024/01/13 01:44:49;;;;;;;88.18;25.52;;;1.10;99.90;;;;;;5079315;28;20077;-67
2024/01/13 01:47:16;;;;;;;78.40;25.17;;;1.20;99.90;;;;;;5077999;28;20479;-65
2024/01/13 01:49:42;;;;;;;76.32;23.42;;;1.20;99.90;;;;;;5086253;28;20381;-68
2024/01/13 01:52:08;;;;;;;85.55;25.15;;;1.10;99.90;;;;;;5079288;28;20051;-66
2024/01/13 01:54:34;;;;;;;67.43;23.85;;;1.20;99.90;;;;;;5081593;28;20031;-66
2024/01/13 01:57:01;;;;;;;71.03;24.52;;;1.20;99.90;;;;;;5079789;28;20072;-67
2024/01/13 01:59:27;;;;;;;73.93;23.42;;;1.20;99.90;;;;;;5077544;28;20407;-66
2024/01/13 02:01:53;;;;;;;47.13;15.27;;;1.20;99.90;;;;;;5079846;28;20036;-67
2024/01/13 02:04:19;;;;;;;76.43;25.48;;;1.20;99.90;;;;;;5080932;28;20021;-67
2024/01/13 02:06:44;;;;;;;62.92;22.27;;;1.20;99.90;;;;;;5083090;28;20111;-67
2024/01/13 02:09:12;;;;;;;69.80;22.90;;;1.20;99.90;;;;;;5081604;28;20376;-67
2024/01/13 02:11:38;;;;;;;74.85;24.75;;;1.20;99.90;;;;;;5084828;28;20103;-67
2024/01/13 02:14:03;;;;;;;71.65;25.10;;;1.20;99.90;;;;;;5082849;28;20115;-67
2024/01/13 02:16:29;;;;;;;62.63;22.48;;;1.20;99.90;;;;;;5083545;28;20032;-67
2024/01/13 02:18:55;;;;;;;85.88;27.92;;;1.20;99.90;;;;;;5080796;28;20028;-66
2024/01/13 02:21:20;;;;;;;70.97;24.08;;;1.20;99.90;;;;;;5084247;28;20098;-66
2024/01/13 02:23:46;;;;;;;73.85;23.02;;;1.20;99.90;;;;;;5082190;28;20480;-67
2024/01/13 02:26:12;;;;;;;93.43;27.10;;;1.20;99.90;;;;;;5089731;28;20035;-66
2024/01/13 02:28:38;;;;;;;75.32;23.90;;;1.20;99.90;;;;;;5082444;28;20066;-66
2024/01/13 02:31:04;;;;;;;72.72;24.67;;;1.30;99.90;;;;;;5080720;28;20024;-67
2024/01/13 02:33:29;;;;;;;77.90;24.48;;;1.30;99.90;;;;;;5081176;28;20077;-67
2024/01/13 02:35:55;;;;;;;81.72;27.08;;;1.30;99.90;;;;;;5080099;28;20388;-67
2024/01/13 02:38:21;;;;;;;73.82;21.73;;;1.30;99.90;;;;;;5082897;28;20372;-67
2024/01/13 02:40:46;;;;;;;76.13;25.73;;;1.30;99.90;;;;;;5079967;28;20103;-67
2024/01/13 02:43:12;;;;;;;75.95;25.60;;;1.30;99.90;;;;;;5080876;28;20032;-67
2024/01/13 02:45:37;;;;;;;75.10;23.65;;;1.30;99.90;;;;;;5081903;28;20028;-67
2024/01/13 02:48:14;;;;;;;82.85;26.52;;;1.20;99.90;;;;;;5081329;28;20043;-67
2024/01/13 02:50:39;;;;;;;71.65;23.27;;;1.20;99.90;;;;;;5079690;28;20012;-67
2024/01/13 02:53:05;;;;;;;66.30;19.67;;;1.20;99.90;;;;;;5088161;28;20080;-67
2024/01/13 02:55:30;;;;;;;69.85;23.08;;;1.20;99.90;;;;;;5080539;28;20368;-67
2024/01/13 02:57:56;;;;;;;64.03;21.02;;;1.20;99.90;;;;;;5086485;28;20024;-67
2024/01/13 03:00:22;;;;;;;46.00;15.52;;;1.20;99.90;;;;;;5079009;28;20029;-67
2024/01/13 03:02:47;;;;;;;63.70;22.80;;;1.30;99.90;;;;;;5080930;28;20082;-67
2024/01/13 03:05:13;;;;;;;67.03;22.85;;;1.30;99.90;;;;;;5079423;28;20533;-67
2024/01/13 03:07:38;;;;;;;63.78;20.92;;;1.30;99.90;;;;;;5088607;28;20101;-67
2024/01/13 03:10:05;;;;;;;65.07;23.45;;;1.30;99.90;;;;;;5081416;28;20035;-67
2024/01/13 03:12:30;;;;;;;61.03;22.23;;;1.30;99.90;;;;;;5082340;28;20032;-67
2024/01/13 03:14:56;;;;;;;63.35;21.45;;;1.30;99.90;;;;;;5080127;28;20027;-67
2024/01/13 03:17:22;;;;;;;57.30;20.35;;;1.30;99.90;;;;;;5082085;28;20039;-67
2024/01/13 03:19:47;;;;;;;64.35;24.35;;;1.20;99.90;;;;;;5079057;28;20029;-67
2024/01/13 03:22:13;;;;;;;62.15;22.25;;;1.30;99.90;;;;;;5081423;28;20024;-67
2024/01/13 03:24:39;;;;;;;64.50;23.55;;;1.20;99.90;;;;;;5077369;28;20020;-66
2024/01/13 03:27:04;;;;;;;66.72;23.27;;;1.30;99.90;;;;;;5079343;28;20093;-67
2024/01/13 03:29:30;;;;;;;67.82;23.20;;;1.20;99.90;;;;;;5080452;28;20437;-67
2024/01/13 03:31:55;;;;;;;68.57;23.33;;;1.20;99.90;;;;;;5079913;28;20020;-67
2024/01/13 03:34:21;;;;;;;67.45;23.63;;;1.20;99.90;;;;;;5085738;28;20046;-67
2024/01/13 03:36:47;;;;;;;59.17;21.15;;;1.30;99.90;;;;;;5082307;28;20032;-67
2024/01/13 03:39:12;;;;;;;61.55;22.77;;;1.30;99.90;;;;;;5077325;28;20028;-64
2024/01/13 03:41:39;;;;;;;53.28;19.20;;;1.20;99.90;;;;;;5080806;28;20227;-65
2024/01/13 03:44:04;;;;;;;64.38;22.02;;;1.20;99.90;;;;;;5081721;28;20032;-64
2024/01/13 03:46:30;;;;;;;58.72;19.35;;;1.20;99.90;;;;;;5079442;28;20020;-64
2024/01/13 03:48:55;;;;;;;55.35;20.77;;;1.20;99.90;;;;;;5079109;28;20067;-64
2024/01/13 03:51:21;;;;;;;60.28;21.77;;;1.20;99.90;;;;;;5080771;28;20031;-65
2024/01/13 03:53:46;;;;;;;34.53;13.57;;;1.30;99.90;;;;;;5085373;28;20073;-64
2024/01/13 03:56:12;;;;;;;53.22;18.20;;;1.30;99.90;;;;;;5081076;28;20024;-65
2024/01/13 03:58:38;;;;;;;54.08;20.42;;;1.30;99.90;;;;;;5078456;28;20575;-64
2024/01/13 04:01:04;;;;;;;54.60;20.50;;;1.30;99.90;;;;;;5085891;28;20080;-64
2024/01/13 04:03:30;;;;;;;56.08;21.20;;;1.20;99.90;;;;;;5077305;28;20120;-64
2024/01/13 04:05:56;;;;;;;48.30;18.05;;;1.30;99.90;;;;;;5080194;28;20094;-64
2024/01/13 04:08:22;;;;;;;57.97;21.98;;;1.30;99.90;;;;;;5078144;28;20060;-65
2024/01/13 04:10:47;;;;;;;54.42;20.00;;;1.20;99.90;;;;;;5083273;28;20077;-64
2024/01/13 04:13:14;;;;;;;56.10;21.13;;;1.20;99.90;;;;;;5077168;28;20036;-64
2024/01/13 04:15:40;;;;;;;59.60;21.08;;;1.30;99.90;;;;;;5079272;28;20032;-64
2024/01/13 04:18:06;;;;;;;47.70;17.25;;;1.30;99.90;;;;;;5079992;28;20488;-64
2024/01/13 04:20:31;;;;;;;52.40;19.77;;;1.30;99.90;;;;;;5078408;28;20024;-64
2024/01/13 04:22:57;;;;;;;54.85;22.05;;;1.30;99.90;;;;;;5079051;28;20141;-64
2024/01/13 04:25:23;;;;;;;47.85;16.70;;;1.30;99.90;;;;;;5079184;28;20028;-64
2024/01/13 04:27:50;;;;;;;54.05;20.90;;;1.30;99.90;;;;;;5077590;28;20039;-64
2024/01/13 04:30:15;;;;;;;48.25;16.27;;;1.30;99.90;;;;;;5076684;28;20076;-64
2024/01/13 04:32:42;;;;;;;54.88;20.73;;;1.30;99.90;;;;;;5071486;28;20427;-64
2024/01/13 04:35:08;;;;;;;38.83;15.05;;;1.30;99.90;;;;;;5080238;28;20028;-65
2024/01/13 04:37:34;;;;;;;49.80;18.08;;;1.30;99.90;;;;;;5076921;28;20028;-64
2024/01/13 04:40:00;;;;;;;46.13;17.73;;;1.30;99.90;;;;;;5080096;28;20082;-64
2024/01/13 04:42:26;;;;;;;39.08;15.68;;;1.30;99.90;;;;;;5078224;28;20024;-65
2024/01/13 04:44:51;;;;;;;42.13;17.17;;;1.30;99.90;;;;;;5079840;28;20040;-64
2024/01/13 04:47:17;;;;;;;42.88;16.77;;;1.30;99.90;;;;;;5077272;28;20104;-65
2024/01/13 04:49:43;;;;;;;40.10;14.48;;;1.30;99.90;;;;;;5082157;28;20115;-67
2024/01/13 04:52:08;;;;;;;43.45;14.05;;;1.40;99.90;;;;;;5077394;28;20032;-66
2024/01/13 04:54:34;;;;;;;44.30;16.13;;;1.40;99.90;;;;;;5081941;28;20024;-67
2024/01/13 04:57:00;;;;;;;40.13;14.85;;;1.40;99.90;;;;;;5073741;28;20069;-67
2024/01/13 04:59:26;;;;;;;48.80;17.70;;;1.30;99.90;;;;;;5079102;28;20024;-67
2024/01/13 05:01:52;;;;;;;42.20;17.60;;;1.30;99.90;;;;;;5082901;28;20070;-67
2024/01/13 05:04:18;;;;;;;39.33;16.45;;;1.30;99.90;;;;;;5079926;28;20039;-66
2024/01/13 05:06:44;;;;;;;45.58;16.77;;;1.30;99.90;;;;;;5078451;28;20025;-66
2024/01/13 05:09:10;;;;;;;45.58;17.55;;;1.30;99.90;;;;;;5077905;28;20021;-66
2024/01/13 05:11:36;;;;;;;50.35;17.55;;;1.30;99.90;;;;;;5081339;28;20517;-66
2024/01/13 05:14:01;;;;;;;47.00;17.13;;;1.40;99.90;;;;;;5076920;28;20039;-66
2024/01/13 05:16:27;;;;;;;37.28;12.55;;;1.30;99.90;;;;;;5078386;28;20027;-66
2024/01/13 05:18:53;;;;;;;43.22;17.02;;;1.30;99.90;;;;;;5086994;28;20021;-67
2024/01/13 05:21:18;;;;;;;53.00;18.75;;;1.40;99.90;;;;;;5079385;28;20456;-66
2024/01/13 05:23:44;;;;;;;43.85;16.20;;;1.30;99.90;;;;;;5077947;28;20025;-67
2024/01/13 05:26:09;;;;;;;51.58;19.23;;;1.30;99.90;;;;;;5081127;28;20020;-67
2024/01/13 05:28:35;;;;;;;39.15;13.57;;;1.30;99.90;;;;;;5076348;28;20410;-66
2024/01/13 05:31:01;;;;;;;50.35;18.60;;;1.30;99.90;;;;;;5081399;28;20059;-67
2024/01/13 05:33:26;;;;;;;35.15;15.63;;;1.30;99.90;;;;;;5086400;28;20111;-66
2024/01/13 05:35:53;;;;;;;49.97;19.38;;;1.30;99.90;;;;;;5079842;28;20032;-67
2024/01/13 05:38:19;;;;;;;48.65;19.30;;;1.30;99.90;;;;;;5081790;28;20048;-67
2024/01/13 05:40:45;;;;;;;31.02;11.60;;;1.30;99.90;;;;;;5083984;28;20067;-67
2024/01/13 05:43:11;;;;;;;51.83;17.83;;;1.30;99.90;;;;;;5081537;28;20460;-67
2024/01/13 05:45:36;;;;;;;49.40;18.98;;;1.30;99.90;;;;;;5085052;28;20502;-66
2024/01/13 05:48:02;;;;;;;47.85;18.15;;;1.30;99.90;;;;;;5081462;28;20480;-66
2024/01/13 05:50:28;;;;;;;44.05;18.25;;;1.30;99.90;;;;;;5083818;28;20021;-66
2024/01/13 05:52:53;;;;;;;46.22;18.10;;;1.30;99.90;;;;;;5081175;28;20070;-67
2024/01/13 05:55:19;;;;;;;50.50;19.27;;;1.30;99.90;;;;;;5082582;28;20028;-67
2024/01/13 05:57:45;;;;;;;47.10;17.30;;;1.30;99.90;;;;;;5081846;28;20028;-66
2024/01/13 06:00:11;;;;;;;47.72;19.27;;;1.30;99.90;;;;;;5083712;28;20078;-64
2024/01/13 06:02:36;;;;;;;54.55;18.92;;;1.30;99.90;;;;;;5077675;28;20051;-64
2024/01/13 06:05:02;;;;;;;51.08;20.55;;;1.30;99.90;;;;;;5083565;28;20103;-64
2024/01/13 06:07:28;;;;;;;51.70;19.40;;;1.30;99.90;;;;;;5080511;28;20090;-65
2024/01/13 06:09:54;;;;;;;51.55;18.23;;;1.30;99.90;;;;;;5084573;28;20031;-64
2024/01/13 06:12:20;;;;;;;49.15;18.90;;;1.30;99.90;;;;;;5087071;28;20035;-64
2024/01/13 06:14:46;;;;;;;55.05;20.63;;;1.30;99.90;;;;;;5081575;28;20414;-64
2024/01/13 06:17:12;;;;;;;47.63;17.67;;;1.30;99.90;;;;;;5081466;28;20123;-62
2024/01/13 06:19:38;;;;;;;55.70;20.73;;;1.20;99.90;;;;;;5079681;28;20104;-64
2024/01/13 06:22:04;;;;;;;47.33;19.65;;;1.20;99.90;;;;;;5083469;28;20078;-64
2024/01/13 06:24:29;;;;;;;48.20;19.13;;;1.20;99.90;;;;;;5078904;28;20507;-64
2024/01/13 06:26:55;;;;;;;52.10;18.25;;;1.10;99.90;;;;;;5082472;28;20029;-64
2024/01/13 06:29:21;;;;;;;51.13;17.73;;;1.10;99.90;;;;;;5080657;28;20487;-64
2024/01/13 06:31:46;;;;;;;45.70;17.52;;;1.10;99.90;;;;;;5081120;28;20103;-64
2024/01/13 06:34:12;;;;;;;44.70;15.93;;;1.10;99.90;;;;;;5079041;28;20028;-64
2024/01/13 06:36:38;;;;;;;47.58;17.83;;;1.20;99.90;;;;;;5086428;28;20035;-64
2024/01/13 06:39:04;;;;;;;43.42;15.05;;;1.20;99.90;;;;;;5081830;28;20089;-64
2024/01/13 06:41:30;;;;;;;47.92;17.30;;;1.20;99.90;;;;;;5081296;28;20016;-64
2024/01/13 06:43:56;;;;;;;41.22;15.13;;;1.20;99.90;;;;;;5079858;28;20086;-64
2024/01/13 06:46:22;;;;;;;30.10;11.93;;;1.20;99.90;;;;;;5087225;28;20059;-64
2024/01/13 06:48:47;;;;;;;46.10;16.02;;;1.30;99.90;;;;;;5080922;28;20024;-64
2024/01/13 06:51:14;;;;;;;35.53;13.40;;;1.30;99.90;;;;;;5081532;28;20040;-64
2024/01/13 06:53:39;;;;;;;42.95;16.02;;;1.30;99.90;;;;;;5085386;28;20030;-64
2024/01/13 06:56:05;;;;;;;39.30;14.65;;;1.30;99.90;;;;;;5082335;28;20391;-64
2024/01/13 06:58:31;;;;;;;27.33;12.07;;;1.40;99.90;;;;;;5076879;28;20019;-64
2024/01/13 07:00:58;;;;;;;32.75;12.68;;;1.30;99.90;;;;;;5079381;28;20073;-65
2024/01/13 07:03:23;;;;;;;50.55;18.55;;;1.30;99.90;;;;;;5073710;28;20044;-64
2024/01/13 07:05:49;;;;;;;50.10;18.17;;;1.30;99.90;;;;;;5072355;28;20119;-64
2024/01/13 07:08:14;;;;;;;52.92;19.48;;;1.30;99.90;;;;;;5076400;28;20036;-67
2024/01/13 07:10:40;;;;;;;46.10;18.13;;;1.30;99.90;;;;;;5082239;28;20558;-67
2024/01/13 07:13:06;;;;;;;35.72;13.98;;;1.30;99.90;;;;;;5072992;28;20020;-67
2024/01/13 07:15:31;;;;;;;55.00;19.52;;;1.40;99.90;;;;;;5076981;28;20074;-67
2024/01/13 07:17:59;;;;;;;41.35;18.02;;;1.40;99.90;;;;;;5073998;28;20549;-67
2024/01/13 07:20:26;;;;;;;45.72;17.85;;;1.40;99.90;;;;;;5076630;28;20016;-67
2024/01/13 07:22:51;;;;;;;42.17;17.73;;;1.40;99.90;;;;;;5083691;28;20356;-67
2024/01/13 07:25:17;;;;;;;18.67;8.30;;;1.50;99.90;;;;;;5081253;28;20095;-67
2024/01/13 07:27:43;;;;;;;45.97;18.85;;;1.50;99.90;;;;;;5078568;28;20074;-67
2024/01/13 07:30:09;;;;;;;43.35;18.17;;;1.50;99.90;;;;;;5079767;28;20074;-67
2024/01/13 07:32:34;;;;;;;40.33;16.08;;;1.50;99.90;;;;;;5076807;28;20104;-67
2024/01/13 07:35:00;;;;;;;34.65;16.40;;;1.50;99.90;;;;;;5072935;28;20107;-67
2024/01/13 07:37:25;;;;;;;41.15;17.00;;;1.50;99.90;;;;;;5074553;28;20037;-67
2024/01/13 07:39:51;;;;;;;43.33;16.48;;;1.50;99.90;;;;;;5074790;28;20388;-67
2024/01/13 07:42:17;;;;;;;33.28;14.38;;;1.60;99.90;;;;;;5082634;28;20028;-67
2024/01/13 07:44:43;;;;;;;35.28;14.35;;;1.60;99.90;;;;;;5086215;28;20173;-67
2024/01/13 07:47:09;;;;;;;42.30;15.55;;;1.60;99.90;;;;;;5078309;28;20103;-67
2024/01/13 07:49:35;;;;;;;35.10;15.02;;;1.60;99.90;;;;;;5084281;28;20069;-67
2024/01/13 07:52:01;;;;;;;36.20;15.65;;;1.60;99.90;;;;;;5085007;28;20031;-67
2024/01/13 07:54:26;;;;;;;33.03;13.88;;;1.60;99.90;;;;;;5080768;28;20085;-67
2024/01/13 07:56:53;;;;;;;34.10;14.82;;;2.50;99.90;;;;;;5081276;28;20089;-67
2024/01/13 07:59:19;;;;;;;29.80;12.98;;;1.60;99.90;;;;;;5079303;28;20387;-68
2024/01/13 08:01:45;;;;;;;33.50;13.60;;;1.60;99.90;;;;;;5084241;28;20046;-67
2024/01/13 08:04:13;;;;;;;26.35;12.20;;;1.70;99.90;;;;;;5064109;28;20017;-66
2024/01/13 08:06:38;;;;;;;19.83;8.88;;;1.70;99.90;;;;;;5077951;28;20102;-67
2024/01/13 08:09:04;;;;;;;33.90;14.85;;;1.70;99.90;;;;;;5080288;28;20032;-66
2024/01/13 08:11:30;;;;;;;30.70;12.70;;;1.70;99.90;;;;;;5087600;28;20024;-67
2024/01/13 08:13:59;;;;;;;28.67;13.07;;;1.70;99.90;;;;;;5077824;28;20040;-66
2024/01/13 08:16:25;;;;;;;30.92;14.30;;;1.70;99.90;;;;;;5074242;28;20016;-66
2024/01/13 08:18:51;;;;;;;31.55;12.57;;;1.80;99.90;;;;;;5079191;28;20032;-64
2024/01/13 08:21:16;;;;;;;28.80;12.18;;;1.80;99.90;;;;;;5080082;28;20025;-65
2024/01/13 08:23:42;;;;;;;29.65;13.23;;;1.80;99.90;;;;;;5081795;28;20063;-64
2024/01/13 08:26:08;;;;;;;30.38;11.75;;;1.80;99.90;;;;;;5077457;28;20443;-65
2024/01/13 08:28:33;;;;;;;21.17;10.77;;;1.80;99.90;;;;;;5077015;28;20039;-65
2024/01/13 08:30:59;;;;;;;24.67;10.23;;;1.80;99.90;;;;;;5077240;28;20107;-64
2024/01/13 08:33:24;;;;;;;31.92;13.73;;;1.80;99.90;;;;;;5075251;28;20024;-64
2024/01/13 08:35:50;;;;;;;25.77;10.18;;;1.80;99.90;;;;;;5074519;28;20041;-64
2024/01/13 08:38:16;;;;;;;30.02;13.48;;;1.80;99.90;;;;;;5069774;28;20033;-64
2024/01/13 08:40:44;;;;;;;35.35;13.05;;;1.90;99.90;;;;;;5078077;28;20012;-65
2024/01/13 08:43:09;;;;;;;28.63;11.70;;;1.90;99.90;;;;;;5075634;28;20044;-65
2024/01/13 08:45:35;;;;;;;26.55;11.98;;;1.90;99.90;;;;;;5072789;28;20352;-64
2024/01/13 08:48:01;;;;;;;28.38;11.52;;;1.90;99.90;;;;;;5075259;28;20522;-64
2024/01/13 08:50:27;;;;;;;24.35;9.63;;;1.90;99.90;;;;;;5077341;28;20123;-65
2024/01/13 08:52:55;;;;;;;30.23;11.93;;;1.90;99.90;;;;;;5081646;28;20404;-64
2024/01/13 08:55:24;;;;;;;27.80;11.65;;;1.90;99.90;;;;;;5065897;28;20029;-64
2024/01/13 08:57:50;;;;;;;25.92;11.05;;;2.00;99.90;;;;;;5082816;28;20025;-65
2024/01/13 09:00:16;;;;;;;27.77;12.02;;;2.00;99.90;;;;;;5077211;28;20530;-65
2024/01/13 09:02:42;;;;;;;23.40;9.75;;;2.00;99.90;;;;;;5076237;28;20043;-65
2024/01/13 09:05:08;;;;;;;22.60;8.80;;;2.00;99.90;;;;;;5079913;28;20388;-65
2024/01/13 09:07:37;;;;;;;21.90;8.30;;;2.00;99.90;;;;;;5077527;28;20108;-65
2024/01/13 09:10:03;;;;;;;26.63;11.88;;;2.00;99.90;;;;;;5078867;28;20028;-65
2024/01/13 09:12:29;;;;;;;24.27;9.90;;;2.10;99.90;;;;;;5080431;28;20016;-65
2024/01/13 09:14:55;;;;;;;27.85;11.98;;;2.10;99.90;;;;;;5083227;28;20058;-64
2024/01/13 09:17:20;;;;;;;28.63;12.32;;;2.10;99.90;;;;;;5073208;28;20408;-65
2024/01/13 09:19:46;;;;;;;20.33;9.32;;;2.10;99.90;;;;;;5080620;28;20028;-65
2024/01/13 09:22:12;;;;;;;24.63;10.88;;;2.10;99.90;;;;;;5081140;28;20822;-64
2024/01/13 09:24:37;;;;;;;29.27;12.27;;;2.00;99.90;;;;;;5076291;28;20135;-65
2024/01/13 09:27:03;;;;;;;27.45;12.00;;;2.00;99.90;;;;;;5081670;28;20024;-65
2024/01/13 09:29:29;;;;;;;30.27;12.23;;;2.00;99.90;;;;;;5081393;28;20456;-64
2024/01/13 09:31:55;;;;;;;23.50;8.25;;;2.00;99.90;;;;;;5072497;28;20027;-64
2024/01/13 09:34:21;;;;;;;26.45;10.27;;;2.00;99.90;;;;;;5081840;28;20032;-64
2024/01/13 09:36:47;;;;;;;27.48;13.75;;;2.00;99.90;;;;;;5077592;28;20103;-64
2024/01/13 09:39:14;;;;;;;31.77;14.38;;;2.00;99.90;;;;;;5077187;28;20490;-64
2024/01/13 09:41:48;;;;;;;19.20;7.97;;;2.00;99.90;;;;;;5086938;28;20083;-64
2024/01/13 09:44:22;;;;;;;24.08;9.45;;;2.00;99.90;;;;;;5088483;28;20440;-65
2024/01/13 09:46:49;;;;;;;36.30;14.07;;;2.00;99.90;;;;;;5078290;28;20337;-64
2024/01/13 09:49:17;;;;;;;33.35;14.60;;;2.00;99.90;;;;;;5077589;28;20052;-64
2024/01/13 09:51:44;;;;;;;32.63;14.25;;;2.00;99.90;;;;;;5078896;28;20109;-64
2024/01/13 09:54:12;;;;;;;32.88;13.48;;;2.00;99.90;;;;;;5086230;28;20059;-64
2024/01/13 09:56:46;;;;;;;29.83;13.55;;;2.00;99.90;;;;;;5075237;28;20105;-64
2024/01/13 09:59:12;;;;;;;32.28;13.25;;;2.10;99.90;;;;;;5086998;28;20033;-64
2024/01/13 10:01:39;;;;;;;26.38;10.80;;;2.00;99.90;;;;;;5081118;28;20047;-65
2024/01/13 10:04:05;;;;;;;35.67;14.27;;;2.10;99.90;;;;;;5077789;28;20038;-64
2024/01/13 10:06:32;;;;;;;32.55;12.23;;;2.10;99.90;;;;;;5081336;28;20165;-65
2024/01/13 10:08:58;;;;;;;30.50;13.50;;;2.10;99.90;;;;;;5082883;28;20026;-65
2024/01/13 10:11:24;;;;;;;26.38;9.20;;;2.10;99.90;;;;;;5084171;28;20502;-66
2024/01/13 10:14:03;;;;;;;35.33;14.60;;;2.10;99.90;;;;;;5084913;28;20025;-64
2024/01/13 10:16:31;;;;;;;29.58;10.70;;;2.10;99.90;;;;;;5079143;28;20644;-65
2024/01/13 10:19:02;;;;;;;29.35;11.27;;;2.00;99.90;;;;;;5081167;28;20028;-64
2024/01/13 10:21:28;;;;;;;36.13;15.32;;;2.00;99.90;;;;;;5076453;28;20028;-66
2024/01/13 10:23:55;;;;;;;31.70;12.65;;;1.90;99.90;;;;;;5078112;28;20029;-65
2024/01/13 10:26:21;;;;;;;34.28;14.00;;;2.00;99.90;;;;;;5075413;28;20052;-65
2024/01/13 10:28:48;;;;;;;35.92;14.35;;;2.00;99.90;;;;;;5078564;28;20690;-65
2024/01/13 10:31:15;;;;;;;30.85;12.98;;;1.90;99.90;;;;;;5085754;28;20089;-65
2024/01/13 10:33:44;;;;;;;27.85;11.27;;;1.90;99.90;;;;;;5068747;28;20039;-65
2024/01/13 10:36:10;;;;;;;38.40;16.45;;;2.00;99.90;;;;;;5077487;28;20068;-65
2024/01/13 10:38:39;;;;;;;35.55;15.82;;;1.90;99.90;;;;;;5082552;28;20024;-66
2024/01/13 10:41:06;;;;;;;31.80;12.90;;;1.90;99.90;;;;;;5080766;28;20360;-66
2024/01/13 10:43:33;;;;;;;52.50;25.73;;;2.00;99.90;;;;;;5081186;28;20063;-66
2024/01/13 10:46:02;;;;;;;46.35;18.83;;;2.00;99.90;;;;;;5083560;28;20027;-67
2024/01/13 10:48:45;;;;;;;30.88;11.75;;;2.00;99.90;;;;;;5081943;28;20499;-67
2024/01/13 10:51:23;;;;;;;42.55;16.73;;;2.00;99.90;;;;;;5075864;28;20113;-67
2024/01/13 10:53:51;;;;;;;29.02;13.70;;;2.10;99.90;;;;;;5089230;28;20055;-67
2024/01/13 10:56:16;;;;;;;34.83;15.40;;;2.10;99.90;;;;;;5088423;28;20033;-67
2024/01/13 10:58:45;;;;;;;39.67;15.30;;;2.10;99.90;;;;;;5078673;28;20094;-67
2024/01/13 11:01:11;;;;;;;35.70;15.23;;;2.10;99.90;;;;;;5076996;28;20020;-67
2024/01/13 11:03:38;;;;;;;30.40;12.13;;;2.10;99.90;;;;;;5082453;28;20024;-67
2024/01/13 11:06:04;;;;;;;30.70;12.90;;;2.00;99.90;;;;;;5081181;28;20028;-67
2024/01/13 11:08:30;;;;;;;42.75;17.52;;;2.00;99.90;;;;;;5081421;28;20036;-67
2024/01/13 11:10:57;;;;;;;37.28;15.80;;;2.00;99.90;;;;;;5080769;28;20016;-67
2024/01/13 11:13:27;;;;;;;37.55;14.05;;;2.00;99.90;;;;;;5087813;28;20043;-67
2024/01/13 11:15:57;;;;;;;;;;;2.00;99.90;;;;;;5081756;28;20032;-67
2024/01/13 11:18:23;;;;;;;21.08;8.55;;;2.00;99.90;;;;;;5080840;28;19909;-67
2024/01/13 11:21:05;;;;;;;35.35;13.60;;;2.10;99.90;;;;;;5080092;28;20035;-67
2024/01/13 11:23:54;;;;;;;36.33;15.60;;;2.10;99.90;;;;;;5088556;28;20043;-67
2024/01/13 11:26:27;;;;;;;35.47;15.55;;;2.10;99.90;;;;;;5059988;28;20094;-67
2024/01/13 11:28:54;;;;;;;34.92;15.88;;;2.10;99.90;;;;;;5080179;28;20032;-66
2024/01/13 11:31:40;;;;;;;25.60;10.18;;;2.10;99.90;;;;;;5088364;28;20539;-67
2024/01/13 11:34:08;;;;;;;29.20;11.98;;;2.10;99.90;;;;;;5073098;28;20430;-67
2024/01/13 11:36:38;;;;;;;37.30;14.45;;;2.10;99.90;;;;;;5081854;28;20035;-67
2024/01/13 11:39:06;;;;;;;27.00;9.60;;;2.10;99.90;;;;;;5078427;28;20036;-67
2024/01/13 11:41:52;;;;;;;37.72;14.80;;;2.10;99.90;;;;;;5088337;28;20020;-66
2024/01/13 11:44:23;;;;;;;29.48;11.73;;;2.10;99.90;;;;;;5059321;28;20112;-67
2024/01/13 11:47:05;;;;;;;32.03;13.05;;;2.10;99.90;;;;;;5080251;28;20438;-67
2024/01/13 11:49:47;;;;;;;27.65;10.80;;;2.10;99.90;;;;;;5081153;28;20035;-66
2024/01/13 11:52:15;;;;;;;26.45;11.23;;;2.10;99.90;;;;;;5072021;28;20043;-65
2024/01/13 11:54:43;;;;;;;29.52;12.80;;;2.10;99.90;;;;;;5080817;28;20024;-65
2024/01/13 11:57:12;;;;;;;36.72;17.63;;;2.10;99.90;;;;;;5079118;28;20486;-65
2024/01/13 11:59:38;;;;;;;29.08;12.63;;;2.00;99.90;;;;;;5077462;28;20040;-65
2024/01/13 12:02:04;;;;;;;30.85;12.60;;;2.10;99.90;;;;;;5072496;28;20063;-65
2024/01/13 12:04:32;;;;;;;32.80;14.75;;;2.10;99.90;;;;;;5079456;28;20024;-66
2024/01/13 12:06:59;;;;;;;35.22;14.50;;;2.10;99.90;;;;;;5077237;28;20032;-65
2024/01/13 12:09:26;;;;;;;33.50;12.95;;;2.10;99.90;;;;;;5077442;28;20032;-65
2024/01/13 12:11:56;;;;;;;25.05;11.88;;;2.10;99.90;;;;;;5081425;28;20511;-65
2024/01/13 12:14:26;;;;;;;24.88;9.98;;;2.10;99.90;;;;;;5079843;28;20085;-65
2024/01/13 12:16:53;;;;;;;32.75;14.15;;;2.00;99.90;;;;;;5078535;28;20024;-65
2024/01/13 12:19:20;;;;;;;33.92;13.85;;;2.00;99.90;;;;;;5079421;28;20017;-65
2024/01/13 12:21:46;;;;;;;26.90;11.30;;;2.00;99.90;;;;;;5076441;28;20020;-65
2024/01/13 12:24:12;;;;;;;34.30;14.30;;;2.00;99.90;;;;;;5080295;28;20057;-65
2024/01/13 12:26:38;;;;;;;27.10;11.82;;;2.00;99.90;;;;;;5077591;28;20029;-65
2024/01/13 12:29:05;;;;;;;16.73;8.38;;;2.00;99.90;;;;;;5080925;28;20300;-66
2024/01/13 12:31:31;;;;;;;35.67;16.13;;;2.10;99.90;;;;;;5072413;28;20027;-65
2024/01/13 12:34:11;;;;;;;30.98;12.07;;;2.00;99.90;;;;;;5075816;28;20024;-66